Time;durP1;ratioP1;P1;durP2;ratioP2;P2;SDS_P1;SDS_P2;PMS_P1;PMS_P2;Temp;Humidity;BMP_temperature;BMP_pressure;BME280_temperature;BME280_humidity;BME280_pressure;Samples;Min_cycle;Max_cycle;Signal;HPM_P1;HPM_P2
2021/10/25 00:01:19;;;;;;;9.73;4.57;;;;;;;12.84;42.69;102385.38;5018066;28;20025;-71
2021/10/25 00:03:45;;;;;;;11.90;4.55;;;;;;;12.79;42.05;102342.25;5020266;28;20396;-70
2021/10/25 00:06:11;;;;;;;8.23;4.25;;;;;;;12.92;42.87;102400.47;5009940;28;20048;-71
2021/10/25 00:08:37;;;;;;;9.93;4.40;;;;;;;12.55;42.93;102382.09;5023510;28;20037;-70
2021/10/25 00:11:02;;;;;;;9.18;4.38;;;;;;;12.96;43.49;102407.59;5023534;28;20095;-70
2021/10/25 00:13:28;;;;;;;6.47;3.97;;;;;;;13.21;42.95;102411.66;5027444;28;20049;-70
2021/10/25 00:15:53;;;;;;;5.75;4.03;;;;;;;13.13;42.48;102403.56;5042737;28;20060;-70
2021/10/25 00:18:19;;;;;;;7.53;4.82;;;;;;;13.16;42.36;102377.28;5026096;28;20049;-70
2021/10/25 00:20:44;;;;;;;6.70;4.07;;;;;;;13.23;42.40;102412.59;5023806;28;20033;-71
2021/10/25 00:23:09;;;;;;;9.35;4.80;;;;;;;13.46;42.88;102407.78;5016793;28;20466;-71
2021/10/25 00:25:35;;;;;;;9.38;3.60;;;;;;;13.38;43.30;102405.00;5020820;28;20028;-71
2021/10/25 00:28:00;;;;;;;6.72;4.00;;;;;;;13.21;43.34;102412.53;5047899;28;20091;-69
2021/10/25 00:30:26;;;;;;;6.05;3.83;;;;;;;13.20;42.85;102401.94;5023542;28;20056;-69
2021/10/25 00:32:52;;;;;;;10.18;5.57;;;;;;;13.01;42.93;102398.03;5012878;28;20562;-70
2021/10/25 00:35:17;;;;;;;10.13;5.60;;;;;;;13.10;43.07;102398.22;5022367;28;20037;-71
2021/10/25 00:37:43;;;;;;;6.93;4.20;;;;;;;12.74;43.20;102399.19;5023173;28;20477;-71
2021/10/25 00:40:09;;;;;;;7.45;4.70;;;;;;;12.86;43.64;102391.56;5023196;28;20076;-70
2021/10/25 00:42:35;;;;;;;11.88;5.35;;;;;;;12.36;44.07;102395.63;5032999;28;20400;-71
2021/10/25 00:45:00;;;;;;;6.78;5.28;;;;;;;12.39;44.63;102374.69;5025126;28;20025;-71
2021/10/25 00:47:26;;;;;;;11.45;5.28;;;;;;;11.99;44.61;102358.78;5042480;28;20116;-70
2021/10/25 00:49:51;;;;;;;7.82;4.90;;;;;;;11.86;45.20;102395.22;5020507;28;20658;-70
2021/10/25 00:52:19;;;;;;;8.38;5.35;;;;;;;11.00;46.55;102359.50;5023519;28;20493;-71
2021/10/25 00:54:45;;;;;;;11.98;6.07;;;;;;;10.86;46.97;102393.22;5023090;28;20040;-71
2021/10/25 00:57:11;;;;;;;8.30;5.93;;;;;;;11.12;46.30;102390.50;5010264;28;20041;-70
2021/10/25 00:59:37;;;;;;;8.45;6.00;;;;;;;11.79;47.58;102387.16;5025365;28;20056;-69
2021/10/25 01:02:03;;;;;;;9.50;5.88;;;;;;;12.15;45.19;102373.22;5022810;28;20049;-70
2021/10/25 01:04:29;;;;;;;10.68;5.55;;;;;;;12.10;44.59;102380.09;5022916;28;20041;-71
2021/10/25 01:06:55;;;;;;;9.73;5.25;;;;;;;12.03;44.45;102393.94;5022572;28;20037;-70
2021/10/25 01:09:22;;;;;;;8.73;5.63;;;;;;;12.01;45.07;102354.44;5024067;28;20026;-68
2021/10/25 01:11:49;;;;;;;7.05;5.18;;;;;;;12.16;44.85;102372.34;5017681;28;20037;-70
2021/10/25 01:14:18;;;;;;;8.85;5.32;;;;;;;11.80;45.11;102338.09;5022929;28;20029;-70
2021/10/25 01:16:44;;;;;;;13.52;6.20;;;;;;;11.79;44.76;102378.38;5021690;28;20187;-68
2021/10/25 01:19:09;;;;;;;13.43;5.85;;;;;;;11.34;44.70;102348.22;5023919;28;20041;-70
2021/10/25 01:21:36;;;;;;;12.25;5.65;;;;;;;11.86;45.37;102376.81;5023132;28;20405;-70
2021/10/25 01:24:02;;;;;;;8.15;4.60;;;;;;;11.30;45.18;102346.34;5024116;28;20029;-70
2021/10/25 01:26:27;;;;;;;7.50;4.75;;;;;;;11.46;45.26;102388.88;5026687;28;20076;-71
2021/10/25 01:28:53;;;;;;;9.52;4.90;;;;;;;11.62;45.75;102391.06;5017533;28;20066;-70
2021/10/25 01:31:20;;;;;;;8.35;6.00;;;;;;;11.65;44.69;102354.31;5015060;28;20197;-69
2021/10/25 01:33:47;;;;;;;10.00;5.95;;;;;;;11.20;45.07;102382.00;5025472;28;20037;-71
2021/10/25 01:36:13;;;;;;;7.65;5.10;;;;;;;11.25;45.43;102371.63;5014465;28;20045;-71
2021/10/25 01:38:39;;;;;;;11.88;5.10;;;;;;;10.31;47.26;102384.50;5028759;28;20068;-70
2021/10/25 01:41:04;;;;;;;8.45;4.20;;;;;;;10.44;46.71;102391.06;5026209;28;20128;-70
2021/10/25 01:43:30;;;;;;;8.50;5.28;;;;;;;10.82;46.80;102385.22;5023989;28;20631;-70
2021/10/25 01:45:56;;;;;;;8.13;5.05;;;;;;;10.71;46.32;102387.50;5026251;28;20099;-70
2021/10/25 01:48:22;;;;;;;7.20;4.57;;;;;;;9.98;47.83;102362.38;5026043;28;20119;-69
2021/10/25 01:50:48;;;;;;;8.82;4.85;;;;;;;10.52;47.68;102368.56;5019868;28;20032;-70
2021/10/25 01:53:14;;;;;;;13.40;5.78;;;;;;;10.66;46.25;102350.63;5018666;28;20038;-70
2021/10/25 01:55:40;;;;;;;9.02;6.38;;;;;;;11.11;46.26;102388.72;5027147;28;20040;-69
2021/10/25 01:58:06;;;;;;;8.43;5.00;;;;;;;10.66;46.49;102387.38;5026310;28;20124;-70
2021/10/25 02:00:33;;;;;;;11.18;6.63;;;;;;;10.38;47.44;102396.09;5023365;28;20065;-70
2021/10/25 02:02:59;;;;;;;12.02;6.20;;;;;;;9.75;48.05;102362.47;5025112;28;20038;-70
2021/10/25 02:05:25;;;;;;;6.75;5.20;;;;;;;9.93;48.46;102396.31;5026814;28;20037;-70
2021/10/25 02:07:51;;;;;;;11.93;5.60;;;;;;;9.65;49.20;102399.69;5018672;28;20600;-69
2021/10/25 02:10:16;;;;;;;8.45;5.45;;;;;;;10.15;47.44;102351.56;5019610;28;20145;-70
2021/10/25 02:12:42;;;;;;;7.90;4.90;;;;;;;10.11;47.74;102354.03;5022255;28;20064;-70
2021/10/25 02:15:08;;;;;;;15.75;5.28;;;;;;;10.63;47.78;102371.53;5021908;28;20036;-71
2021/10/25 02:17:33;;;;;;;8.75;5.40;;;;;;;10.25;46.96;102381.63;5025593;28;20037;-69
2021/10/25 02:19:59;;;;;;;8.70;5.00;;;;;;;9.52;49.45;102401.84;5027525;28;20382;-69
2021/10/25 02:22:25;;;;;;;11.38;5.85;;;;;;;9.20;50.20;102384.94;5026528;28;20671;-69
2021/10/25 02:24:50;;;;;;;7.90;4.63;;;;;;;9.34;49.87;102380.22;5023475;28;20608;-69
2021/10/25 02:27:16;;;;;;;9.38;5.80;;;;;;;9.04;51.14;102408.78;5024512;28;20029;-68
2021/10/25 02:29:42;;;;;;;19.80;6.15;;;;;;;9.12;50.99;102398.59;5023642;28;20124;-69
2021/10/25 02:32:09;;;;;;;5.95;4.88;;;;;;;10.14;49.52;102388.28;5022342;28;20079;-69
2021/10/25 02:34:35;;;;;;;16.98;6.80;;;;;;;10.58;48.95;102388.84;5019337;28;20508;-70
2021/10/25 02:37:01;;;;;;;12.50;6.03;;;;;;;10.59;47.65;102360.88;5024389;28;20033;-69
2021/10/25 02:39:28;;;;;;;9.65;5.90;;;;;;;10.83;47.70;102390.50;5016603;28;20045;-70
2021/10/25 02:41:54;;;;;;;9.82;4.95;;;;;;;10.47;47.01;102357.03;5022192;28;20236;-69
2021/10/25 02:44:20;;;;;;;8.05;5.35;;;;;;;10.73;47.09;102362.19;5025354;28;20068;-70
2021/10/25 02:46:46;;;;;;;7.28;4.70;;;;;;;10.87;46.90;102391.50;5026861;28;20037;-70
2021/10/25 02:49:12;;;;;;;7.50;4.72;;;;;;;10.58;46.73;102359.97;5014139;28;20038;-70
2021/10/25 02:51:37;;;;;;;9.48;5.60;;;;;;;10.48;46.94;102352.66;5023844;28;20512;-69
2021/10/25 02:54:03;;;;;;;8.15;5.40;;;;;;;10.78;46.27;102389.50;5021609;28;21496;-69
2021/10/25 02:56:28;;;;;;;14.50;6.82;;;;;;;10.37;47.07;102351.41;5024867;28;20092;-70
2021/10/25 02:58:55;;;;;;;7.85;5.10;;;;;;;10.78;46.65;102389.50;5026983;28;20037;-71
2021/10/25 03:01:21;;;;;;;12.35;5.18;;;;;;;10.27;47.38;102351.09;5026019;28;20042;-69
2021/10/25 03:03:47;;;;;;;10.13;5.35;;;;;;;10.65;47.13;102388.22;5024099;28;20033;-71
2021/10/25 03:06:13;;;;;;;8.43;5.20;;;;;;;10.91;47.17;102388.13;5009409;28;20102;-71
2021/10/25 03:08:39;;;;;;;10.13;5.40;;;;;;;10.11;46.97;102354.03;5018410;28;20037;-69
2021/10/25 03:11:05;;;;;;;8.40;5.18;;;;;;;10.50;47.75;102354.47;5022438;28;20041;-69
2021/10/25 03:13:30;;;;;;;8.43;4.55;;;;;;;10.85;46.73;102385.31;5024141;28;20047;-69
2021/10/25 03:15:57;;;;;;;16.25;6.55;;;;;;;10.64;46.62;102348.78;5022737;28;20580;-70
2021/10/25 03:18:23;;;;;;;9.50;5.00;;;;;;;10.63;46.58;102352.22;5024290;28;20029;-69
2021/10/25 03:20:48;;;;;;;9.65;4.65;;;;;;;10.37;47.67;102340.91;5025215;28;20069;-70
2021/10/25 03:23:14;;;;;;;15.65;5.88;;;;;;;10.48;47.27;102394.66;5024630;28;20495;-70
2021/10/25 03:25:40;;;;;;;13.00;6.03;;;;;;;10.54;47.05;102381.75;5017586;28;20033;-69
2021/10/25 03:28:05;;;;;;;7.70;4.93;;;;;;;10.39;46.79;102384.75;5023105;28;20404;-70
2021/10/25 03:30:31;;;;;;;11.38;5.07;;;;;;;10.47;47.16;102392.88;5015516;28;20574;-72
2021/10/25 03:32:57;;;;;;;7.50;5.22;;;;;;;10.59;46.96;102387.13;5023771;28;20133;-70
2021/10/25 03:35:23;;;;;;;8.43;5.60;;;;;;;10.61;47.83;102385.44;5020481;28;20618;-70
2021/10/25 03:37:48;;;;;;;16.65;7.22;;;;;;;10.47;47.39;102383.28;5019606;28;20026;-69
2021/10/25 03:40:15;;;;;;;9.65;5.75;;;;;;;10.59;47.11;102381.88;5017271;28;20045;-70
2021/10/25 03:42:46;;;;;;;7.75;5.43;;;;;;;10.46;46.98;102394.59;5018503;28;20113;-71
2021/10/25 03:46:03;;;;;;;12.02;6.50;;;;;;;10.45;47.00;102378.81;5020407;28;20129;-70
2021/10/25 03:48:53;;;;;;;12.77;5.78;;;;;;;10.29;47.47;102324.94;5013308;28;20144;-69
2021/10/25 03:50:48;;;;;;;7.88;5.63;;;;;;;10.64;47.65;102370.66;5010628;28;20057;-70
2021/10/25 03:53:23;;;;;;;13.63;6.85;;;;;;;10.88;46.90;102383.66;5034653;28;20463;-70
2021/10/25 03:55:57;;;;;;;9.27;5.75;;;;;;;10.76;46.57;102344.78;5021316;28;20405;-70
2021/10/25 03:58:56;;;;;;;9.88;4.80;;;;;;;10.66;45.89;102366.38;5024933;28;20091;-69
2021/10/25 04:01:44;;;;;;;10.63;5.72;;;;;;;10.43;46.23;102359.50;5023664;28;20044;-70
2021/10/25 04:13:02;;;;;;;14.32;6.00;;;;;;;10.53;46.50;102349.31;5021201;28;20136;-69
2021/10/25 04:26:16;;;;;;;10.82;5.40;;;;;;;10.25;47.84;102376.38;5019227;28;20087;-70
2021/10/25 04:28:43;;;;;;;11.75;5.47;;;;;;;9.91;46.57;102348.16;5022269;28;20029;-69
2021/10/25 04:31:08;;;;;;;7.78;4.72;;;;;;;10.30;47.61;102361.75;5023623;28;20025;-69
2021/10/25 04:33:34;;;;;;;13.27;4.65;;;;;;;10.57;47.74;102384.44;5024897;28;24114;-70
2021/10/25 04:35:59;;;;;;;8.23;5.45;;;;;;;10.65;47.17;102387.31;5011064;28;20033;-69
2021/10/25 04:38:25;;;;;;;8.43;4.30;;;;;;;10.48;47.25;102364.03;5011013;28;20096;-69
2021/10/25 04:40:50;;;;;;;18.35;6.40;;;;;;;10.09;46.33;102353.09;5017584;28;20037;-70
2021/10/25 04:43:17;;;;;;;10.77;5.97;;;;;;;10.21;47.34;102352.63;5020380;28;20045;-68
2021/10/25 04:45:43;;;;;;;11.60;4.97;;;;;;;10.56;47.25;102387.94;5020426;28;20519;-68
2021/10/25 04:48:09;;;;;;;10.15;5.88;;;;;;;10.41;46.99;102390.94;5024365;28;20112;-69
2021/10/25 04:50:35;;;;;;;10.10;5.55;;;;;;;10.48;46.05;102394.66;5015063;28;20037;-69
2021/10/25 04:53:01;;;;;;;18.52;5.82;;;;;;;10.31;47.13;102389.75;5018870;28;20656;-68
2021/10/25 04:55:27;;;;;;;10.65;5.93;;;;;;;9.94;46.74;102388.47;5023885;28;20068;-69
2021/10/25 04:57:52;;;;;;;8.30;5.30;;;;;;;9.14;48.93;102384.72;5021921;28;20585;-69
2021/10/25 05:00:18;;;;;;;15.25;5.25;;;;;;;9.01;49.17;102396.47;5022823;28;20064;-69
2021/10/25 05:02:43;;;;;;;10.30;5.88;;;;;;;9.16;49.18;102400.50;5024977;28;20516;-68
2021/10/25 05:05:09;;;;;;;12.05;5.50;;;;;;;8.60;49.93;102347.72;5017628;28;20624;-68
2021/10/25 05:07:35;;;;;;;9.43;5.95;;;;;;;8.06;51.86;102410.00;5018625;28;20045;-70
2021/10/25 05:10:02;;;;;;;10.88;6.15;;;;;;;7.95;51.67;102368.59;5023840;28;20073;-69
2021/10/25 05:12:29;;;;;;;19.08;5.97;;;;;;;8.17;51.81;102374.72;5022367;28;20039;-70
2021/10/25 05:14:54;;;;;;;8.93;6.05;;;;;;;7.30;53.57;102372.72;5020928;28;20033;-70
2021/10/25 05:17:20;;;;;;;15.90;7.95;;;;;;;7.61;52.95;102379.34;5015020;28;20134;-70
2021/10/25 05:19:45;;;;;;;10.73;6.40;;;;;;;6.97;55.11;102416.44;5018198;28;20063;-69
2021/10/25 05:22:11;;;;;;;13.10;7.65;;;;;;;7.39;54.80;102409.69;5021161;28;20494;-69
2021/10/25 05:24:39;;;;;;;13.32;7.82;;;;;;;7.43;54.65;102431.66;5021526;28;20501;-70
2021/10/25 05:27:06;;;;;;;21.15;8.90;;;;;;;7.51;54.70;102426.75;5018040;28;20442;-71
2021/10/25 05:29:32;;;;;;;11.63;8.68;;;;;;;6.82;55.56;102400.09;5020420;28;20033;-70
2021/10/25 05:31:57;;;;;;;13.90;9.63;;;;;;;6.96;55.96;102399.03;5014371;28;20029;-70
2021/10/25 05:34:22;;;;;;;23.55;9.57;;;;;;;7.58;55.21;102440.16;5014600;28;20037;-69
2021/10/25 05:36:48;;;;;;;13.15;9.32;;;;;;;7.16;56.05;102441.69;5019294;28;20600;-70
2021/10/25 05:39:13;;;;;;;26.38;10.48;;;;;;;6.93;56.34;102436.31;5016589;28;20034;-69
2021/10/25 05:41:39;;;;;;;11.63;8.77;;;;;;;6.97;56.47;102425.16;5022669;28;20726;-70
2021/10/25 05:44:06;;;;;;;19.05;8.88;;;;;;;6.91;57.12;102456.22;5022377;28;20078;-71
2021/10/25 05:46:32;;;;;;;9.25;7.78;;;;;;;7.56;55.72;102448.75;5018995;28;20031;-70
2021/10/25 05:48:58;;;;;;;13.38;7.65;;;;;;;7.29;55.60;102422.28;5017669;28;20033;-72
2021/10/25 05:51:24;;;;;;;13.13;8.35;;;;;;;7.64;54.01;102428.22;5016389;28;20041;-71
2021/10/25 05:53:49;;;;;;;19.35;8.20;;;;;;;7.84;54.01;102422.13;5022295;28;20144;-71
2021/10/25 05:56:15;;;;;;;13.68;6.60;;;;;;;7.88;53.35;102434.50;5023997;28;20072;-69
2021/10/25 05:58:41;;;;;;;16.42;6.75;;;;;;;7.92;53.40;102443.38;5022343;28;20492;-71
2021/10/25 06:01:12;;;;;;;12.85;6.65;;;;;;;7.87;53.58;102469.31;5020229;28;20053;-71
2021/10/25 06:03:43;;;;;;;23.70;8.60;;;;;;;7.90;53.44;102438.09;5021563;28;20025;-71
2021/10/25 06:06:09;;;;;;;14.20;8.68;;;;;;;8.56;52.82;102460.94;5024954;28;20034;-69
2021/10/25 06:08:36;;;;;;;12.75;6.47;;;;;;;9.01;50.76;102426.97;5021011;28;20037;-71
2021/10/25 06:11:01;;;;;;;15.63;7.70;;;;;;;9.04;51.36;102464.66;5025655;28;20085;-71
2021/10/25 06:13:38;;;;;;;16.15;9.35;;;;;;;9.50;49.65;102471.66;5027621;28;20045;-71
2021/10/25 06:16:10;;;;;;;11.40;7.40;;;;;;;8.94;50.72;102457.25;5049254;28;20046;-70
2021/10/25 06:18:36;;;;;;;12.93;6.90;;;;;;;9.27;49.37;102464.63;5021768;28;20069;-71
2021/10/25 06:21:02;;;;;;;19.58;7.78;;;;;;;9.26;49.68;102434.03;5024108;28;20571;-72
2021/10/25 06:23:28;;;;;;;9.48;6.05;;;;;;;9.34;49.72;102482.41;5025927;28;20049;-71
2021/10/25 06:25:54;;;;;;;12.85;6.40;;;;;;;9.66;48.78;102465.25;5025117;28;20076;-70
2021/10/25 06:28:23;;;;;;;16.45;8.02;;;;;;;9.62;48.19;102467.69;5020420;28;20066;-71
2021/10/25 06:30:55;;;;;;;11.13;7.47;;;;;;;8.84;49.79;102494.38;5022384;28;20041;-72
2021/10/25 06:33:22;;;;;;;11.43;5.55;;;;;;;9.30;48.77;102473.53;5024606;28;20584;-69
2021/10/25 06:35:56;;;;;;;10.13;5.70;;;;;;;9.89;47.34;102458.22;5023915;28;20041;-69
2021/10/25 06:38:25;;;;;;;12.07;4.97;;;;;;;9.94;47.49;102497.72;5022470;28;20030;-70
2021/10/25 06:40:50;;;;;;;19.70;6.90;;;;;;;9.84;46.78;102465.03;5026260;28;20037;-70
2021/10/25 06:43:16;;;;;;;11.57;7.38;;;;;;;10.46;46.23;102464.56;5012712;28;20042;-71
2021/10/25 06:45:41;;;;;;;16.85;6.40;;;;;;;10.71;45.84;102466.28;5019258;28;20041;-70
2021/10/25 06:48:07;;;;;;;9.57;5.35;;;;;;;10.63;45.61;102497.53;5021968;28;20038;-71
2021/10/25 06:50:39;;;;;;;8.35;5.97;;;;;;;10.76;45.12;102488.31;5026265;28;20046;-71
2021/10/25 06:53:06;;;;;;;18.25;4.72;;;;;;;10.32;46.20;102487.72;5011155;28;20516;-71
2021/10/25 06:55:34;;;;;;;8.75;5.88;;;;;;;9.08;48.70;102447.31;5011437;28;20045;-70
2021/10/25 06:58:00;;;;;;;6.50;5.07;;;;;;;10.17;46.78;102497.66;5016659;28;20124;-72
2021/10/25 07:00:25;;;;;;;15.75;6.55;;;;;;;10.68;46.36;102490.72;5019072;28;20047;-70
2021/10/25 07:02:51;;;;;;;8.45;5.40;;;;;;;10.53;46.62;102498.94;5022009;28;20360;-70
2021/10/25 07:05:17;;;;;;;10.85;5.78;;;;;;;10.94;45.85;102493.28;5023647;28;20037;-71
2021/10/25 07:07:43;;;;;;;14.75;6.53;;;;;;;10.79;45.59;102501.53;5026653;28;20029;-70
2021/10/25 07:10:10;;;;;;;18.33;5.90;;;;;;;10.33;46.80;102460.66;5024651;28;20260;-70
2021/10/25 07:12:35;;;;;;;8.80;5.78;;;;;;;10.99;45.61;102489.94;5031523;28;20036;-70
2021/10/25 07:15:03;;;;;;;25.45;4.78;;;;;;;10.50;45.87;102498.84;5024239;28;20069;-71
2021/10/25 07:17:43;;;;;;;10.55;5.30;;;;;;;10.95;45.35;102488.06;5008104;28;20022;-72
2021/10/25 08:00:42;;;;;;;11.38;5.63;;;;;;;11.71;44.27;102478.09;5002071;28;20103;-69
2021/10/25 08:08:40;;;;;;;8.75;6.35;;;;;;;11.35;44.61;102443.75;5002574;28;20052;-71
2021/10/25 08:11:09;;;;;;;10.45;5.82;;;;;;;12.02;43.67;102479.88;5001129;28;20089;-71
2021/10/25 08:13:40;;;;;;;8.23;5.40;;;;;;;12.24;43.73;102454.13;5007848;28;20030;-71
2021/10/25 08:16:13;;;;;;;11.00;7.50;;;;;;;11.67;43.50;102442.03;4997155;28;21048;-71
2021/10/25 08:21:09;;;;;;;16.63;8.90;;;;;;;11.49;45.03;102473.94;5023006;28;20044;-70
2021/10/25 08:23:35;;;;;;;9.90;7.50;;;;;;;11.79;43.66;102436.22;5015119;28;20034;-72
2021/10/25 08:26:01;;;;;;;7.75;5.25;;;;;;;11.76;45.02;102468.59;5014911;28;20440;-70
2021/10/25 08:28:27;;;;;;;10.20;6.40;;;;;;;10.88;45.88;102472.06;5014814;28;20123;-72
2021/10/25 08:30:52;;;;;;;9.63;6.03;;;;;;;11.29;45.21;102454.09;5008942;28;20112;-70
2021/10/25 08:34:27;;;;;;;11.10;5.35;;;;;;;10.35;45.88;102425.75;5022000;28;20042;-71
2021/10/25 08:36:23;;;;;;;13.25;6.90;;;;;;;10.55;46.54;102460.50;5026597;28;20140;-71
2021/10/25 08:41:30;;;;;;;11.70;7.50;;;;;;;11.19;45.35;102466.03;5017174;28;20084;-72
2021/10/25 08:43:58;;;;;;;12.75;7.68;;;;;;;11.41;44.09;102449.19;5020466;28;20124;-71
2021/10/25 08:46:25;;;;;;;14.23;6.30;;;;;;;11.65;43.51;102419.19;5022409;28;20037;-71
2021/10/25 08:48:53;;;;;;;8.63;4.85;;;;;;;11.58;43.41;102457.56;5023970;28;20037;-71
2021/10/25 08:51:19;;;;;;;11.77;5.85;;;;;;;11.22;43.29;102420.59;5024708;28;20462;-70
2021/10/25 08:53:44;;;;;;;10.63;5.55;;;;;;;11.85;42.73;102454.81;5011424;28;20140;-72
2021/10/25 08:56:16;;;;;;;9.02;6.25;;;;;;;12.08;42.37;102413.38;5015601;28;20564;-72
2021/10/25 08:58:49;;;;;;;7.78;4.28;;;;;;;12.39;42.00;102438.75;5018742;28;20044;-70
2021/10/25 09:01:32;;;;;;;7.75;4.53;;;;;;;11.38;42.68;102463.13;5009798;28;20386;-71
2021/10/25 09:04:07;;;;;;;11.63;5.68;;;;;;;11.61;43.70;102455.00;5020957;28;20041;-72
2021/10/25 09:06:33;;;;;;;10.13;5.13;;;;;;;12.12;43.13;102453.81;5008263;28;20041;-72
2021/10/25 09:09:04;;;;;;;11.23;6.28;;;;;;;12.17;41.99;102413.59;5024496;28;20037;-70
2021/10/25 09:11:30;;;;;;;10.80;4.95;;;;;;;13.20;41.30;102454.69;5016706;28;20454;-71
2021/10/25 09:13:56;;;;;;;8.98;4.30;;;;;;;12.64;41.21;102420.88;5021537;28;20026;-71
2021/10/25 09:16:22;;;;;;;8.27;4.68;;;;;;;12.93;40.68;102454.97;5018987;28;20072;-70
2021/10/25 09:18:47;;;;;;;24.38;4.32;;;;;;;11.98;41.89;102458.72;5018565;28;20041;-70
2021/10/25 09:21:14;;;;;;;14.57;6.53;;;;;;;12.33;42.06;102456.13;5008686;28;20045;-70
2021/10/25 09:23:42;;;;;;;14.75;8.10;;;;;;;12.49;41.68;102449.50;5022370;28;20459;-70
2021/10/25 09:26:17;;;;;;;8.32;4.65;;;;;;;13.51;40.15;102443.97;5021748;28;20404;-71
2021/10/25 09:28:53;;;;;;;6.55;4.15;;;;;;;12.01;40.87;102409.69;5022028;28;20120;-70
2021/10/25 09:31:26;;;;;;;8.25;5.32;;;;;;;12.56;40.86;102406.66;5017227;28;20029;-70
2021/10/25 09:34:02;;;;;;;6.10;3.30;;;;;;;11.92;42.08;102440.13;5020164;28;20025;-70
2021/10/25 09:36:35;;;;;;;13.57;4.90;;;;;;;11.82;41.62;102423.16;5024250;28;20033;-69
2021/10/25 09:39:36;;;;;;;10.70;6.22;;;;;;;12.82;39.35;102433.63;5024836;28;20060;-70
2021/10/25 09:49:55;;;;;;;12.00;5.93;;;;;;;11.94;40.47;102417.38;5013632;28;20048;-69
2021/10/25 09:52:40;;;;;;;9.45;4.50;;;;;;;12.55;40.48;102426.84;5019164;28;20037;-68
2021/10/25 09:55:12;;;;;;;8.77;4.88;;;;;;;12.79;40.48;102376.47;5017351;28;20044;-69
2021/10/25 09:57:52;;;;;;;8.38;5.07;;;;;;;13.73;38.53;102378.44;5025684;28;20116;-69
2021/10/25 10:00:18;;;;;;;6.75;3.97;;;;;;;13.01;39.00;102371.69;5023118;28;20221;-71
2021/10/25 10:02:45;;;;;;;7.63;5.25;;;;;;;13.41;38.62;102370.78;5011214;28;20036;-69
2021/10/25 10:05:12;;;;;;;9.95;4.57;;;;;;;12.07;40.98;102406.31;5021372;28;20056;-71
2021/10/25 10:07:39;;;;;;;5.45;3.85;;;;;;;12.62;41.66;102402.44;5016572;28;20112;-71
2021/10/25 10:10:11;;;;;;;7.05;4.40;;;;;;;11.87;41.41;102363.72;5025489;28;20079;-71
2021/10/25 10:12:40;;;;;;;7.18;4.53;;;;;;;12.68;39.60;102359.53;5023946;28;20041;-70
2021/10/25 10:15:08;;;;;;;9.40;3.50;;;;;;;13.70;38.47;102381.03;5022236;28;20064;-70
2021/10/25 10:17:41;;;;;;;5.50;4.15;;;;;;;13.29;38.78;102383.72;5016741;28;20088;-70
2021/10/25 10:20:11;;;;;;;8.32;3.90;;;;;;;13.92;38.94;102364.72;5023311;28;20038;-69
2021/10/25 10:22:41;;;;;;;22.13;4.47;;;;;;;13.40;39.91;102365.50;5023369;28;20038;-70
2021/10/25 10:25:08;;;;;;;8.43;4.95;;;;;;;13.33;39.02;102324.94;5020014;28;20060;-70
2021/10/25 10:27:34;;;;;;;8.52;4.82;;;;;;;13.56;38.95;102364.94;5021119;28;20225;-70
2021/10/25 10:30:01;;;;;;;8.35;4.30;;;;;;;13.43;39.11;102357.63;5023913;28;20523;-70
2021/10/25 10:32:30;;;;;;;8.50;4.60;;;;;;;13.74;38.81;102361.72;5027770;28;20534;-70
2021/10/25 10:35:02;;;;;;;10.77;4.40;;;;;;;13.65;38.09;102327.28;5025834;28;20117;-70
2021/10/25 10:37:32;;;;;;;7.43;4.38;;;;;;;13.96;38.61;102349.81;5027833;28;20033;-77
2021/10/25 10:40:15;;;;;;;5.88;3.97;;;;;;;14.83;37.26;102320.38;5026339;28;20064;-71
2021/10/25 10:42:51;;;;;;;7.32;3.88;;;;;;;14.99;36.46;102347.00;5021945;28;20041;-71
2021/10/25 10:45:21;;;;;;;13.15;4.22;;;;;;;15.40;36.10;102351.00;5023666;28;20030;-71
2021/10/25 10:48:00;;;;;;;6.63;3.63;;;;;;;15.73;35.33;102346.97;5022740;28;20068;-70
2021/10/25 10:50:41;;;;;;;7.25;4.38;;;;;;;16.17;34.49;102341.19;5024578;28;20041;-70
2021/10/25 10:53:12;;;;;;;16.63;4.25;;;;;;;15.87;35.47;102312.69;5037588;28;20092;-69
2021/10/25 10:55:43;;;;;;;9.05;5.03;;;;;;;14.47;37.72;102300.44;5024911;28;20217;-71
2021/10/25 11:00:47;;;;;;;9.55;5.45;;;;;;;14.77;36.37;102293.00;5024100;28;20045;-70
2021/10/25 11:03:16;;;;;;;7.75;3.95;;;;;;;14.34;37.48;102321.41;5024703;28;20044;-70
2021/10/25 11:05:52;;;;;;;7.13;4.63;;;;;;;15.58;36.71;102315.94;5025878;28;20029;-70
2021/10/25 11:08:21;;;;;;;6.32;4.20;;;;;;;15.94;35.40;102302.16;5018484;28;20087;-70
2021/10/25 11:10:56;;;;;;;12.07;5.38;;;;;;;14.77;36.09;102331.72;5026267;28;20500;-69
2021/10/25 11:13:23;;;;;;;7.47;4.43;;;;;;;15.58;36.39;102284.19;5019034;28;20042;-70
2021/10/25 11:16:08;;;;;;;8.38;4.15;;;;;;;16.15;34.28;102293.50;5023764;28;20053;-70
2021/10/25 11:18:37;;;;;;;9.90;5.30;;;;;;;13.85;37.73;102317.09;5017362;28;20124;-71
2021/10/25 11:21:32;;;;;;;7.07;4.63;;;;;;;14.04;38.14;102276.03;5017352;28;20025;-70
2021/10/25 11:24:13;;;;;;;15.13;5.95;;;;;;;14.11;38.23;102299.03;5015955;28;20033;-70
2021/10/25 11:26:42;;;;;;;6.90;4.50;;;;;;;14.50;38.09;102290.81;5022211;28;20049;-69
2021/10/25 11:29:20;;;;;;;10.25;5.63;;;;;;;14.83;36.98;102272.78;5013264;28;20049;-70
2021/10/25 11:31:48;;;;;;;13.13;3.67;;;;;;;15.89;36.39;102271.25;5024663;28;20052;-70
2021/10/25 11:34:21;;;;;;;8.82;4.68;;;;;;;14.31;37.15;102262.38;5013525;28;20033;-69
2021/10/25 11:37:01;;;;;;;9.03;5.20;;;;;;;13.77;38.90;102287.94;5012371;28;20076;-69
2021/10/25 11:39:27;;;;;;;16.35;6.20;;;;;;;13.85;39.64;102272.22;5019144;28;20039;-70
2021/10/25 11:41:53;;;;;;;9.57;5.25;;;;;;;13.05;39.76;102232.09;5021365;28;20393;-71
2021/10/25 11:44:19;;;;;;;12.02;5.13;;;;;;;13.61;40.25;102267.44;5012716;28;20067;-71
2021/10/25 11:46:44;;;;;;;8.32;5.13;;;;;;;13.10;40.57;102234.81;5011724;28;20069;-70
2021/10/25 11:49:10;;;;;;;9.50;5.30;;;;;;;13.69;39.13;102258.75;5014837;28;20033;-70
2021/10/25 11:51:53;;;;;;;8.48;4.25;;;;;;;14.59;38.90;102252.22;5024216;28;20099;-70
2021/10/25 11:54:18;;;;;;;8.90;4.82;;;;;;;14.28;38.13;102254.38;5023848;28;20041;-72
2021/10/25 11:56:54;;;;;;;6.95;4.68;;;;;;;14.01;39.14;102215.28;5025271;28;20052;-70
2021/10/25 11:59:24;;;;;;;6.82;4.35;;;;;;;13.40;39.28;102215.19;5034458;28;20034;-68
2021/10/25 12:01:51;;;;;;;8.18;4.88;;;;;;;14.08;38.94;102210.13;5024448;28;20067;-69
2021/10/25 12:04:18;;;;;;;20.55;4.75;;;;;;;13.20;40.97;102243.78;5025681;28;20044;-71
2021/10/25 12:07:02;;;;;;;7.45;4.32;;;;;;;12.97;41.49;102238.97;5010968;28;20030;-78
2021/10/25 12:09:34;;;;;;;6.50;4.50;;;;;;;12.91;41.32;102193.19;5016709;28;20434;-71
2021/10/25 12:12:23;;;;;;;8.88;5.55;;;;;;;11.88;42.54;102204.16;5027436;28;20043;-72
2021/10/25 12:14:56;;;;;;;11.93;6.05;;;;;;;12.08;42.61;102225.66;5030818;28;20558;-73
2021/10/25 12:17:26;;;;;;;10.52;5.35;;;;;;;12.28;42.79;102232.25;5023366;28;20048;-74
2021/10/25 12:19:53;;;;;;;11.55;6.00;;;;;;;11.96;43.01;102229.78;5024826;28;20037;-74
2021/10/25 12:22:22;;;;;;;8.82;5.78;;;;;;;12.58;41.32;102218.00;5019816;28;20033;-73
2021/10/25 12:24:50;;;;;;;7.47;5.45;;;;;;;12.56;41.18;102188.97;5016218;28;20064;-73
2021/10/25 12:27:19;;;;;;;9.07;5.25;;;;;;;13.75;39.07;102236.00;5022232;28;20081;-74
2021/10/25 12:29:45;;;;;;;9.35;5.22;;;;;;;13.04;40.81;102225.06;5025817;28;20030;-75
2021/10/25 12:32:12;;;;;;;7.10;4.80;;;;;;;12.68;41.44;102227.84;5031813;28;20103;-74
2021/10/25 12:34:49;;;;;;;6.90;4.50;;;;;;;12.62;41.58;102191.75;5036648;28;21218;-74
2021/10/25 12:37:32;;;;;;;13.43;6.03;;;;;;;13.40;40.54;102225.75;5009435;28;20033;-73
2021/10/25 12:39:59;;;;;;;9.07;4.97;;;;;;;13.22;40.75;102213.97;5025516;28;20045;-72
2021/10/25 12:42:42;;;;;;;7.35;4.53;;;;;;;12.92;40.89;102213.38;5023232;28;21028;-73
2021/10/25 12:45:19;;;;;;;8.60;4.75;;;;;;;12.40;43.03;102195.66;5018588;28;20040;-73
2021/10/25 12:47:46;;;;;;;11.98;6.50;;;;;;;12.42;42.12;102172.00;5023231;28;20397;-73
2021/10/25 12:50:15;;;;;;;7.75;4.85;;;;;;;12.13;42.35;102180.19;5022025;28;20135;-72